Time;durP1;ratioP1;P1;durP2;ratioP2;P2;SDS_P1;SDS_P2;PMS_P1;PMS_P2;Temp;Humidity;BMP_temperature;BMP_pressure;BME280_temperature;BME280_humidity;BME280_pressure;Samples;Min_cycle;Max_cycle;Signal;HPM_P1;HPM_P2
2024/01/11 05:00:46;;;;;;;2.50;2.13;;;-9.50;97.30;;;;;;6033280;23;20415;31
2024/01/11 05:03:12;;;;;;;2.43;2.23;;;-9.40;97.30;;;;;;4932740;29;20459;-72
2024/01/11 05:05:37;;;;;;;4.40;3.10;;;-9.40;97.30;;;;;;4941350;29;20435;-73
2024/01/11 05:08:03;;;;;;;3.27;3.03;;;-9.40;97.30;;;;;;4933331;29;20207;-72
2024/01/11 05:10:29;;;;;;;2.70;2.50;;;-9.40;97.30;;;;;;4932975;29;20282;-72
2024/01/11 05:12:54;;;;;;;8.13;3.47;;;-9.40;97.30;;;;;;4940815;29;20241;-72
2024/01/11 05:15:20;;;;;;;2.53;2.33;;;-9.30;97.30;;;;;;4933371;29;20652;-72
2024/01/11 05:17:45;;;;;;;6.00;3.60;;;-9.30;97.30;;;;;;4934324;29;20200;-72
2024/01/11 05:20:11;;;;;;;3.70;3.50;;;-9.20;97.30;;;;;;4934281;29;20217;-72
2024/01/11 05:22:36;;;;;;;4.13;3.90;;;-9.20;97.30;;;;;;4950092;29;20183;-72
2024/01/11 05:25:02;;;;;;;2.40;2.20;;;-9.20;97.30;;;;;;4944063;29;20181;-72
2024/01/11 05:27:31;;;;;;;6.60;4.33;;;-9.10;97.30;;;;;;4951725;29;20323;-72
2024/01/11 05:29:56;;;;;;;1.53;1.43;;;-9.10;97.30;;;;;;4934555;28;20470;-72
2024/01/11 05:32:22;;;;;;;3.40;2.70;;;-9.10;97.30;;;;;;4938730;29;20439;-73
2024/01/11 05:34:47;;;;;;;4.83;4.10;;;-9.00;97.30;;;;;;4935731;28;20222;-72
2024/01/11 05:37:13;;;;;;;1.30;1.20;;;-9.00;97.30;;;;;;4931773;29;20184;-72
2024/01/11 05:39:38;;;;;;;3.13;2.97;;;-9.00;97.30;;;;;;4932494;29;20501;-72
2024/01/11 05:42:04;;;;;;;11.83;3.43;;;-9.10;97.30;;;;;;4932249;29;20216;-72
2024/01/11 05:44:30;;;;;;;2.83;2.33;;;-9.20;97.30;;;;;;4929798;29;20264;-71
2024/01/11 05:46:55;;;;;;;3.33;2.13;;;-9.20;97.30;;;;;;4962197;28;20192;-72
2024/01/11 05:49:21;;;;;;;3.07;2.87;;;-9.10;97.30;;;;;;4932882;29;20223;-71
2024/01/11 05:51:46;;;;;;;5.23;4.93;;;-9.10;97.30;;;;;;4940766;28;20582;-71
2024/01/11 05:54:12;;;;;;;1.70;1.60;;;-9.00;97.30;;;;;;4932846;29;20231;-71
2024/01/11 05:56:37;;;;;;;2.80;2.60;;;-9.00;97.30;;;;;;4930930;29;20251;-71
2024/01/11 05:59:03;;;;;;;11.83;4.20;;;-9.00;97.30;;;;;;4929711;29;20626;-71
2024/01/11 06:01:28;;;;;;;3.20;3.00;;;-9.00;97.30;;;;;;4931266;29;20301;-71
2024/01/11 06:03:54;;;;;;;17.73;4.60;;;-9.00;97.30;;;;;;4930944;29;20617;-71
2024/01/11 06:06:20;;;;;;;3.57;3.37;;;-9.00;97.30;;;;;;4931444;29;20176;-71
2024/01/11 06:08:46;;;;;;;1.93;1.70;;;-9.00;97.30;;;;;;4931513;29;20472;-71
2024/01/11 06:11:13;;;;;;;6.13;3.83;;;-8.90;97.30;;;;;;4931223;29;20463;-71
2024/01/11 06:13:41;;;;;;;2.13;1.97;;;-8.90;97.30;;;;;;4931035;29;20960;-71
2024/01/11 06:16:07;;;;;;;1.53;1.43;;;-8.80;97.30;;;;;;4932209;29;20248;-71
2024/01/11 06:18:32;;;;;;;1.67;1.57;;;-8.80;97.30;;;;;;4931662;29;20431;-71
2024/01/11 06:20:58;;;;;;;1.30;1.20;;;-8.80;97.30;;;;;;4932695;29;20501;-73
2024/01/11 06:23:25;;;;;;;8.53;4.90;;;-8.80;97.30;;;;;;4932458;29;20242;-71
2024/01/11 06:25:51;;;;;;;1.80;1.70;;;-9.00;97.30;;;;;;4935923;29;20186;-71
2024/01/11 06:28:16;;;;;;;4.83;2.80;;;-9.10;97.30;;;;;;4930946;29;20471;-71
2024/01/11 06:30:43;;;;;;;7.10;2.70;;;-9.10;97.30;;;;;;4927817;29;20220;-71
2024/01/11 06:33:08;;;;;;;1.70;1.40;;;-9.10;97.30;;;;;;4932026;29;20468;-71
2024/01/11 06:35:34;;;;;;;2.23;2.03;;;-9.10;97.30;;;;;;4930600;29;20519;-71
2024/01/11 06:38:00;;;;;;;3.10;2.70;;;-9.00;97.30;;;;;;4928992;29;20188;-71
2024/01/11 06:40:25;;;;;;;6.00;2.40;;;-9.00;97.30;;;;;;4930518;29;20303;-71
2024/01/11 06:42:51;;;;;;;1.30;1.20;;;-9.00;97.30;;;;;;4931817;29;20653;-71
2024/01/11 06:45:17;;;;;;;4.03;3.83;;;-9.00;97.30;;;;;;4932180;29;20247;-72
2024/01/11 06:47:44;;;;;;;2.03;1.90;;;-9.00;97.30;;;;;;4928324;29;20220;-71
2024/01/11 06:50:12;;;;;;;8.90;5.43;;;-8.90;97.30;;;;;;4928366;29;20181;-72
2024/01/11 06:52:38;;;;;;;1.30;1.20;;;-8.90;97.30;;;;;;4926637;29;20470;-70
2024/01/11 06:55:04;;;;;;;4.33;2.40;;;-8.80;97.30;;;;;;4926932;29;20468;-72
2024/01/11 06:57:30;;;;;;;3.13;2.93;;;-8.70;97.30;;;;;;4926182;29;20184;-71
2024/01/11 06:59:56;;;;;;;3.17;2.97;;;-8.70;97.30;;;;;;4925753;29;20424;-71
2024/01/11 07:02:21;;;;;;;1.40;1.30;;;-8.70;97.30;;;;;;4938591;28;20579;-71
2024/01/11 07:04:47;;;;;;;2.50;2.30;;;-8.60;97.30;;;;;;4921623;29;20435;-71
2024/01/11 07:07:12;;;;;;;1.60;1.50;;;-8.60;97.30;;;;;;4919898;29;20215;-72
2024/01/11 07:09:38;;;;;;;7.00;3.80;;;-8.50;97.30;;;;;;4925965;29;20312;-71
2024/01/11 07:12:04;;;;;;;4.70;4.40;;;-8.50;97.30;;;;;;4930444;29;20196;-71
2024/01/11 07:14:30;;;;;;;24.87;4.37;;;-8.40;97.30;;;;;;4934712;29;20254;-71
2024/01/11 07:16:55;;;;;;;7.10;3.63;;;-8.40;97.30;;;;;;4958391;28;20956;-71
2024/01/11 07:19:21;;;;;;;11.93;2.27;;;-8.30;97.30;;;;;;4931547;29;20555;-71
2024/01/11 07:21:47;;;;;;;3.70;3.50;;;-8.20;97.30;;;;;;4938546;28;20722;-72
2024/01/11 07:24:13;;;;;;;1.90;1.80;;;-8.20;97.30;;;;;;4926435;29;20448;-72
2024/01/11 07:26:38;;;;;;;1.30;1.20;;;-8.10;97.30;;;;;;4921053;29;20197;-71
2024/01/11 07:29:04;;;;;;;1.50;1.40;;;-8.10;97.30;;;;;;4930199;29;20210;-71
2024/01/11 07:31:30;;;;;;;6.30;5.00;;;-8.20;97.30;;;;;;4929754;29;20211;-71
2024/01/11 07:33:55;;;;;;;4.63;3.43;;;-8.10;97.30;;;;;;4934004;29;20204;-72
2024/01/11 07:36:21;;;;;;;3.77;3.57;;;-8.10;97.30;;;;;;4922164;29;20282;-71
2024/01/11 07:38:46;;;;;;;5.40;2.90;;;-8.10;97.30;;;;;;4919157;29;20184;-71
2024/01/11 07:41:12;;;;;;;9.90;5.73;;;-8.10;97.30;;;;;;4933242;29;20223;-72
2024/01/11 07:43:37;;;;;;;13.93;2.43;;;-8.10;97.30;;;;;;4925577;28;20203;-72
2024/01/11 07:46:05;;;;;;;5.40;4.40;;;-8.10;97.30;;;;;;4921628;29;20542;-72
2024/01/11 07:48:31;;;;;;;4.77;4.47;;;-8.10;97.30;;;;;;4925430;29;20203;-73
2024/01/11 07:50:56;;;;;;;5.67;2.73;;;-8.10;97.30;;;;;;4951408;28;20450;-72
2024/01/11 07:53:23;;;;;;;3.13;2.50;;;-8.10;97.30;;;;;;4922329;29;20189;-72
2024/01/11 07:55:48;;;;;;;1.77;1.67;;;-8.10;97.30;;;;;;4950293;28;20276;-71
2024/01/11 07:58:15;;;;;;;3.60;2.60;;;-8.00;97.30;;;;;;4922349;29;20575;-72
2024/01/11 08:00:40;;;;;;;5.43;3.90;;;-8.00;97.30;;;;;;4924131;29;20198;-72
2024/01/11 08:03:06;;;;;;;1.67;1.47;;;-7.90;97.30;;;;;;4928863;29;20438;-72
2024/01/11 08:05:31;;;;;;;11.40;2.10;;;-7.90;97.30;;;;;;4925080;29;20200;-73
2024/01/11 08:08:01;;;;;;;2.70;1.90;;;-7.80;97.30;;;;;;4919646;29;20673;-72
2024/01/11 08:10:27;;;;;;;4.93;4.30;;;-7.70;97.30;;;;;;4929861;29;20628;-72
2024/01/11 08:12:52;;;;;;;5.53;3.70;;;-7.60;97.30;;;;;;4917607;29;20422;-72
2024/01/11 08:15:18;;;;;;;5.30;5.00;;;-7.50;97.30;;;;;;4929859;29;20246;-72
2024/01/11 08:17:44;;;;;;;6.63;3.80;;;-7.40;97.30;;;;;;4930012;29;20293;-72
2024/01/11 08:20:11;;;;;;;3.27;2.50;;;-7.40;97.30;;;;;;4927556;29;20189;-72
2024/01/11 08:22:39;;;;;;;5.90;5.00;;;-7.30;97.30;;;;;;4926293;28;20504;-72
2024/01/11 08:25:05;;;;;;;5.53;3.57;;;-7.30;97.30;;;;;;4952651;28;20437;-72
2024/01/11 08:27:33;;;;;;;25.13;3.93;;;-7.20;97.30;;;;;;4920332;29;20426;-72
2024/01/11 08:30:00;;;;;;;2.23;2.03;;;-7.20;97.30;;;;;;4929179;29;20513;-72
2024/01/11 08:32:26;;;;;;;3.80;3.33;;;-7.10;97.30;;;;;;4926238;29;20451;-73
2024/01/11 08:34:51;;;;;;;7.13;5.03;;;-7.00;97.30;;;;;;4927058;29;20432;-72
2024/01/11 08:37:17;;;;;;;2.47;2.10;;;-6.90;97.30;;;;;;4927021;29;20509;-72
2024/01/11 08:39:42;;;;;;;9.10;3.93;;;-6.90;97.30;;;;;;4931692;29;20193;-73
2024/01/11 08:42:08;;;;;;;8.90;4.60;;;-6.80;97.30;;;;;;4930183;29;20619;-73
2024/01/11 08:44:33;;;;;;;2.80;2.60;;;-6.70;97.30;;;;;;4936424;28;20587;-72
2024/01/11 08:46:59;;;;;;;3.63;3.43;;;-6.60;97.30;;;;;;4925611;29;20198;-73
2024/01/11 08:49:25;;;;;;;2.63;2.43;;;-6.60;97.30;;;;;;4931948;29;20675;-72
2024/01/11 08:51:51;;;;;;;5.10;4.40;;;-6.60;97.30;;;;;;4934889;29;20265;-73
2024/01/11 08:54:17;;;;;;;3.13;2.90;;;-6.60;97.30;;;;;;4932991;29;20426;-73
2024/01/11 08:56:42;;;;;;;3.33;2.73;;;-6.50;97.30;;;;;;4926918;29;20220;-73
2024/01/11 08:59:08;;;;;;;2.43;2.23;;;-6.50;97.30;;;;;;4930427;29;20442;-72
2024/01/11 09:01:35;;;;;;;1.43;1.33;;;-6.40;97.30;;;;;;4927300;29;20246;-73
2024/01/11 09:04:01;;;;;;;10.17;5.87;;;-6.30;97.30;;;;;;4928231;29;20682;-73
2024/01/11 09:06:27;;;;;;;1.80;1.70;;;-6.30;97.30;;;;;;4935338;29;20448;-73
2024/01/11 09:08:53;;;;;;;11.13;3.37;;;-6.20;97.30;;;;;;4958108;28;20490;-73
2024/01/11 09:11:18;;;;;;;6.50;4.00;;;-6.20;97.30;;;;;;4928804;29;20292;-73
2024/01/11 09:13:44;;;;;;;2.57;2.00;;;-6.10;97.30;;;;;;4933138;29;20194;-70
2024/01/11 09:16:10;;;;;;;2.23;2.03;;;-6.10;97.30;;;;;;4958060;28;20240;-73
2024/01/11 09:18:35;;;;;;;3.73;3.53;;;-6.00;97.30;;;;;;4938670;29;20670;-73
2024/01/11 09:21:01;;;;;;;2.67;2.47;;;-5.90;97.30;;;;;;4924366;29;20453;-73
2024/01/11 09:23:27;;;;;;;20.77;4.00;;;-5.90;97.30;;;;;;4931279;29;20186;-73
2024/01/11 09:25:52;;;;;;;3.00;2.80;;;-5.80;97.30;;;;;;4925642;29;20192;-73
2024/01/11 09:28:18;;;;;;;2.83;2.63;;;-5.80;97.30;;;;;;4931039;29;20215;-73
2024/01/11 09:30:44;;;;;;;2.10;1.83;;;-5.70;97.30;;;;;;4932972;29;20587;-74
2024/01/11 09:33:09;;;;;;;3.57;3.37;;;-5.70;97.30;;;;;;4923652;29;20439;-73
2024/01/11 09:35:35;;;;;;;4.83;4.53;;;-5.60;97.30;;;;;;4930998;29;20191;-73
2024/01/11 09:38:00;;;;;;;1.80;1.70;;;-5.50;97.30;;;;;;4954232;28;20239;-73
2024/01/11 09:40:26;;;;;;;4.57;4.27;;;-5.50;97.30;;;;;;4922438;29;20586;-73
2024/01/11 09:42:52;;;;;;;5.40;4.67;;;-5.40;97.30;;;;;;4918515;29;20458;-73
2024/01/11 09:45:18;;;;;;;3.20;3.00;;;-5.40;97.30;;;;;;4922717;29;20196;-72
2024/01/11 09:47:48;;;;;;;7.00;3.57;;;-5.30;97.30;;;;;;4929760;29;20220;-73
2024/01/11 09:50:17;;;;;;;3.07;2.87;;;-5.30;97.30;;;;;;4928168;29;20171;-73
2024/01/11 09:52:47;;;;;;;5.20;3.93;;;-5.20;97.30;;;;;;4931601;29;21007;-73
2024/01/11 09:55:13;;;;;;;2.37;2.20;;;-5.10;97.30;;;;;;4928406;29;21043;-73
2024/01/11 09:57:44;;;;;;;4.30;3.77;;;-5.10;97.30;;;;;;4928863;29;20428;-74
2024/01/11 10:00:12;;;;;;;3.77;3.57;;;-5.00;97.30;;;;;;4959057;28;20179;-74
2024/01/11 10:02:38;;;;;;;7.90;5.20;;;-5.00;97.30;;;;;;4929938;29;20459;-74
2024/01/11 10:05:05;;;;;;;2.40;1.90;;;-5.00;97.30;;;;;;4956130;28;20931;-74
2024/01/11 10:07:32;;;;;;;3.13;2.93;;;-4.90;97.30;;;;;;4932379;29;20431;-74
2024/01/11 10:09:58;;;;;;;3.27;2.97;;;-4.80;97.30;;;;;;4927551;29;20484;-74
2024/01/11 10:12:25;;;;;;;5.00;3.63;;;-4.70;97.30;;;;;;4954850;28;20870;-74
2024/01/11 10:14:51;;;;;;;2.87;2.67;;;-4.60;97.30;;;;;;4954540;28;20181;-74
2024/01/11 10:17:18;;;;;;;7.03;5.70;;;-4.50;97.30;;;;;;4928466;29;20427;-74
2024/01/11 10:19:43;;;;;;;2.60;2.40;;;-4.30;97.30;;;;;;4931998;29;20851;-74
2024/01/11 10:22:12;;;;;;;3.80;3.10;;;-4.20;97.30;;;;;;4927677;29;21007;-74
2024/01/11 10:24:38;;;;;;;30.93;7.80;;;-4.10;97.30;;;;;;4929409;29;20176;-75
2024/01/11 10:27:05;;;;;;;3.93;3.13;;;-4.00;97.30;;;;;;4928867;29;20446;-74
2024/01/11 10:29:32;;;;;;;4.47;4.17;;;-3.90;97.30;;;;;;4930190;29;20466;-74
2024/01/11 10:31:57;;;;;;;7.40;5.10;;;-3.90;97.30;;;;;;4949184;28;20454;-74
2024/01/11 10:34:23;;;;;;;23.83;6.30;;;-3.80;97.30;;;;;;4930257;29;20432;-75
2024/01/11 10:36:53;;;;;;;14.27;6.87;;;-3.80;97.30;;;;;;4931078;29;20698;-74
2024/01/11 10:39:26;;;;;;;3.73;3.57;;;-3.70;97.30;;;;;;4921453;28;20540;-74
2024/01/11 10:41:56;;;;;;;8.23;3.33;;;-3.50;97.30;;;;;;4916737;29;20452;-74
2024/01/11 10:44:22;;;;;;;7.63;5.87;;;-3.40;97.30;;;;;;4919935;29;20444;-75
2024/01/11 10:46:49;;;;;;;19.97;5.60;;;-3.30;97.30;;;;;;4923332;29;20428;-74
2024/01/11 10:49:19;;;;;;;4.30;4.00;;;-3.30;97.30;;;;;;4919126;29;20472;-74
2024/01/11 10:52:06;;;;;;;6.67;6.27;;;-3.30;97.30;;;;;;4926765;29;20444;-75
2024/01/11 10:54:34;;;;;;;2.87;2.67;;;-3.20;97.30;;;;;;4928326;29;20491;-74
2024/01/11 10:57:00;;;;;;;6.20;5.20;;;-3.20;97.30;;;;;;4927614;29;20427;-74
2024/01/11 10:59:27;;;;;;;5.70;3.70;;;-3.00;97.30;;;;;;4925785;29;20446;-74
2024/01/11 11:01:55;;;;;;;11.83;5.70;;;-2.70;97.30;;;;;;4917239;29;20471;-74
2024/01/11 11:04:22;;;;;;;4.67;4.37;;;-2.50;97.30;;;;;;4926767;29;20425;-73
2024/01/11 11:06:55;;;;;;;10.57;6.30;;;-2.30;97.30;;;;;;4926877;29;20428;-73
2024/01/11 11:09:21;;;;;;;5.47;2.77;;;-2.20;97.30;;;;;;4926579;29;20566;-73
2024/01/11 11:11:47;;;;;;;2.70;2.50;;;-1.90;97.30;;;;;;4918979;29;20444;-72
2024/01/11 11:14:15;;;;;;;9.20;6.23;;;-1.70;97.30;;;;;;4925205;29;20421;-71
2024/01/11 11:16:40;;;;;;;6.47;6.07;;;-1.70;96.40;;;;;;4928731;29;20519;-71
2024/01/11 11:19:06;;;;;;;8.50;3.30;;;-1.60;96.30;;;;;;4929165;29;20522;-71
2024/01/11 11:21:32;;;;;;;6.37;5.57;;;-1.50;96.10;;;;;;4981274;23;20607;-88
2024/01/11 11:23:57;;;;;;;12.90;4.43;;;-1.60;95.60;;;;;;4974537;28;20415;-88
2024/01/11 11:26:26;;;;;;;12.10;5.70;;;-1.70;95.70;;;;;;4970490;28;20709;-88
2024/01/11 11:28:51;;;;;;;3.27;3.03;;;-1.80;95.80;;;;;;4973629;23;20300;-72
2024/01/11 11:31:36;;;;;;;14.57;4.97;;;-1.70;95.80;;;;;;4970191;28;21049;-71
2024/01/11 11:34:03;;;;;;;5.73;4.70;;;-1.70;96.00;;;;;;4964760;28;20213;-73
2024/01/11 11:36:30;;;;;;;11.93;9.20;;;-1.70;95.90;;;;;;4968523;28;21006;-73
2024/01/11 11:39:00;;;;;;;8.57;6.77;;;-1.80;95.70;;;;;;4968814;28;20508;-72
2024/01/11 11:41:26;;;;;;;12.20;3.30;;;-1.80;96.10;;;;;;4968400;28;20484;-71
2024/01/11 11:43:52;;;;;;;15.77;5.20;;;-1.80;96.30;;;;;;4970395;28;20950;-71
2024/01/11 11:46:18;;;;;;;16.67;8.37;;;-1.70;96.50;;;;;;4968459;28;20446;-71
2024/01/11 11:48:50;;;;;;;8.00;4.83;;;-1.60;96.40;;;;;;4968826;28;20281;-71
2024/01/11 11:51:18;;;;;;;5.90;5.60;;;-1.40;96.10;;;;;;4967309;28;20445;-70
2024/01/11 11:53:45;;;;;;;5.80;5.50;;;-1.00;95.60;;;;;;4970088;28;20436;-70
2024/01/11 11:56:12;;;;;;;4.43;4.13;;;-0.70;94.70;;;;;;4969816;28;20453;-70
2024/01/11 11:58:42;;;;;;;9.30;7.07;;;-0.80;93.90;;;;;;4969790;28;20445;-70
2024/01/11 12:01:08;;;;;;;3.10;2.90;;;-1.10;93.50;;;;;;4969877;28;20497;-70
2024/01/11 12:03:42;;;;;;;5.47;5.17;;;-1.30;94.50;;;;;;4969461;28;20970;-70
2024/01/11 12:06:12;;;;;;;6.63;5.40;;;-1.50;95.30;;;;;;4970761;28;20488;-71
2024/01/11 12:08:41;;;;;;;6.40;4.60;;;-1.50;95.70;;;;;;4969646;28;20544;-71
2024/01/11 12:11:06;;;;;;;8.63;6.40;;;-1.60;95.80;;;;;;4968099;28;20449;-71
2024/01/11 12:13:32;;;;;;;8.73;4.13;;;-1.50;96.00;;;;;;4969282;28;20414;-72
2024/01/11 12:15:58;;;;;;;4.00;3.80;;;-1.50;96.20;;;;;;4969281;28;20191;-71
2024/01/11 12:18:23;;;;;;;6.50;4.13;;;-1.50;96.00;;;;;;4969300;28;20482;-72
2024/01/11 12:20:50;;;;;;;13.47;7.93;;;-1.50;95.70;;;;;;4967958;28;20281;-72
2024/01/11 12:23:16;;;;;;;5.13;3.77;;;-1.50;95.60;;;;;;4967880;28;20178;-71
2024/01/11 12:25:42;;;;;;;10.77;8.07;;;-1.50;96.10;;;;;;4969346;28;20946;-72
2024/01/11 12:28:07;;;;;;;8.27;6.17;;;-1.50;96.30;;;;;;4970473;28;20226;-71
2024/01/11 12:30:33;;;;;;;6.90;5.77;;;-1.50;96.00;;;;;;4966805;28;20203;-72
2024/01/11 12:33:01;;;;;;;3.27;3.07;;;-1.60;96.00;;;;;;4967655;28;20182;-72
2024/01/11 12:35:27;;;;;;;18.70;6.27;;;-1.70;96.40;;;;;;4967271;28;20178;-72
2024/01/11 12:37:59;;;;;;;4.00;3.77;;;-1.70;96.80;;;;;;4969103;28;20473;-71
2024/01/11 12:40:27;;;;;;;3.93;3.73;;;-1.60;97.00;;;;;;4968750;28;21026;-73
2024/01/11 12:42:52;;;;;;;5.60;5.30;;;-1.60;96.90;;;;;;4970120;28;20463;-71
2024/01/11 12:45:19;;;;;;;7.73;2.93;;;-1.60;96.80;;;;;;4968997;28;20429;-72
2024/01/11 12:47:44;;;;;;;8.00;4.27;;;-1.50;96.80;;;;;;4967660;28;20424;-72
2024/01/11 12:50:12;;;;;;;6.47;3.37;;;-1.40;97.10;;;;;;4966391;28;20429;-71
2024/01/11 12:52:38;;;;;;;5.73;3.83;;;-1.30;97.00;;;;;;4969582;28;20627;-71
2024/01/11 12:55:04;;;;;;;11.23;5.20;;;-1.20;96.90;;;;;;4967800;28;20450;-71
2024/01/11 12:57:30;;;;;;;4.73;4.40;;;-1.10;96.90;;;;;;4967544;28;20433;-71
2024/01/11 13:00:12;;;;;;;13.43;5.33;;;-0.90;96.90;;;;;;4968139;28;20500;-70
2024/01/11 13:02:37;;;;;;;9.67;6.23;;;-0.60;96.60;;;;;;4969859;28;20658;-71
2024/01/11 13:05:04;;;;;;;10.30;4.07;;;-0.60;96.00;;;;;;4969275;28;20426;-70
2024/01/11 13:07:30;;;;;;;10.07;4.07;;;-0.40;95.80;;;;;;4967554;28;20182;-70
2024/01/11 13:09:56;;;;;;;13.27;4.07;;;-0.30;95.80;;;;;;4970028;28;20552;-70
2024/01/11 13:12:22;;;;;;;8.87;3.67;;;0.00;95.10;;;;;;4968905;28;20858;-69
2024/01/11 13:14:48;;;;;;;3.33;3.10;;;0.10;94.10;;;;;;4970163;28;20410;-70
2024/01/11 13:17:14;;;;;;;9.03;3.07;;;-0.10;92.90;;;;;;4970893;28;20802;-70
2024/01/11 13:19:39;;;;;;;3.87;3.73;;;-0.20;92.50;;;;;;4973309;28;20465;-70
2024/01/11 13:22:05;;;;;;;4.37;4.10;;;-0.10;92.60;;;;;;4972895;28;20277;-70
2024/01/11 13:24:31;;;;;;;3.00;2.80;;;0.30;92.60;;;;;;4970898;28;20193;-70
2024/01/11 13:26:56;;;;;;;20.10;5.47;;;0.70;92.20;;;;;;4971168;28;20182;-70
2024/01/11 13:29:22;;;;;;;2.60;2.40;;;1.10;91.10;;;;;;4972359;28;20233;-70
2024/01/11 13:31:47;;;;;;;4.70;2.57;;;1.20;90.10;;;;;;4972070;28;20206;-70
2024/01/11 13:34:13;;;;;;;7.20;5.40;;;1.30;89.80;;;;;;4971263;28;20273;-70
2024/01/11 13:36:38;;;;;;;8.60;8.00;;;1.40;89.50;;;;;;4971597;28;20170;-70
2024/01/11 13:39:04;;;;;;;3.90;3.67;;;1.50;89.20;;;;;;4972720;28;20182;-70
2024/01/11 13:41:30;;;;;;;5.87;5.57;;;1.50;88.50;;;;;;4971604;28;20214;-70
2024/01/11 13:43:55;;;;;;;2.37;2.17;;;1.50;87.70;;;;;;4971933;28;20182;-69
2024/01/11 13:46:21;;;;;;;3.50;3.30;;;1.30;87.10;;;;;;4971728;28;20425;-70
2024/01/11 13:48:47;;;;;;;12.73;4.20;;;1.40;87.40;;;;;;4971635;28;20217;-71
2024/01/11 13:51:15;;;;;;;12.07;3.70;;;1.50;87.10;;;;;;4968938;28;20202;-70
2024/01/11 13:53:40;;;;;;;5.27;2.33;;;1.60;87.20;;;;;;4968074;28;20871;-70
2024/01/11 13:56:06;;;;;;;2.73;2.53;;;1.70;86.80;;;;;;4969879;28;20450;-70
2024/01/11 13:58:31;;;;;;;15.17;4.80;;;1.60;86.70;;;;;;4968430;28;20213;-69
2024/01/11 14:00:57;;;;;;;5.47;2.90;;;1.60;86.60;;;;;;4969711;28;20202;-70
2024/01/11 14:03:22;;;;;;;5.50;3.53;;;1.50;86.60;;;;;;4969542;28;20182;-69
2024/01/11 14:05:48;;;;;;;2.87;2.67;;;1.50;87.20;;;;;;4972220;28;20643;-70
2024/01/11 14:08:13;;;;;;;3.30;3.10;;;1.30;87.10;;;;;;4971003;28;20213;-68
2024/01/11 14:10:39;;;;;;;9.87;4.07;;;1.10;86.90;;;;;;4971430;28;20248;-70
2024/01/11 14:13:04;;;;;;;3.77;3.57;;;1.00;87.60;;;;;;4970079;28;20175;-70
2024/01/11 14:15:30;;;;;;;4.50;4.23;;;0.80;87.90;;;;;;4970178;28;20237;-70
2024/01/11 14:17:56;;;;;;;8.10;4.87;;;0.70;88.70;;;;;;4971886;28;20567;-69
2024/01/11 14:20:21;;;;;;;3.50;2.13;;;0.90;89.10;;;;;;4970011;28;20430;-70
2024/01/11 14:22:50;;;;;;;3.20;2.20;;;0.90;89.10;;;;;;4969248;28;20178;-70
2024/01/11 14:25:20;;;;;;;3.77;2.63;;;0.80;89.50;;;;;;4970377;28;20269;-69
2024/01/11 14:27:46;;;;;;;4.83;2.60;;;0.90;90.00;;;;;;4967383;28;20933;-69
2024/01/11 14:30:12;;;;;;;4.67;4.37;;;1.00;90.00;;;;;;4969636;28;20469;-70
2024/01/11 14:32:38;;;;;;;3.50;3.13;;;1.00;89.70;;;;;;4970320;28;20782;-69
2024/01/11 14:35:05;;;;;;;7.03;5.57;;;0.80;89.60;;;;;;4969704;28;20518;-72
2024/01/11 14:37:36;;;;;;;2.40;2.23;;;0.40;90.20;;;;;;4969154;28;20193;-69
2024/01/11 14:40:02;;;;;;;3.03;2.83;;;0.10;91.00;;;;;;4969314;28;20525;-70
2024/01/11 14:42:28;;;;;;;7.50;3.80;;;-0.20;91.60;;;;;;4973197;28;20476;-71
2024/01/11 14:44:54;;;;;;;1.67;1.57;;;-0.60;92.80;;;;;;4983214;28;20980;-74
2024/01/11 14:47:21;;;;;;;3.17;2.83;;;-0.80;93.90;;;;;;4972955;28;20510;-74
2024/01/11 14:49:47;;;;;;;2.23;2.03;;;-1.00;94.80;;;;;;4978915;28;20253;-70
2024/01/11 14:52:13;;;;;;;18.33;4.63;;;-1.20;95.40;;;;;;4974585;28;20447;-70
2024/01/11 14:54:38;;;;;;;2.23;2.07;;;-1.20;96.00;;;;;;4978432;28;20273;-70
2024/01/11 14:57:04;;;;;;;42.30;4.80;;;-1.30;96.50;;;;;;4969506;28;20190;-71
2024/01/11 14:59:31;;;;;;;3.03;2.83;;;-1.50;97.30;;;;;;4976078;28;20244;-70
2024/01/11 15:01:56;;;;;;;1.83;1.73;;;-1.60;97.30;;;;;;4971826;28;20998;-70
2024/01/11 15:04:22;;;;;;;3.13;2.80;;;-1.70;97.30;;;;;;4972061;28;20487;-73
2024/01/11 15:06:48;;;;;;;2.47;2.27;;;-1.90;97.30;;;;;;4969526;28;20197;-71
2024/01/11 15:09:15;;;;;;;3.13;2.93;;;-2.00;97.30;;;;;;4976032;28;20212;-71
2024/01/11 15:11:40;;;;;;;8.37;2.90;;;-2.10;97.30;;;;;;4975570;28;20458;-71
2024/01/11 15:14:12;;;;;;;9.53;4.40;;;-2.20;97.30;;;;;;4969331;28;20469;-72
2024/01/11 15:16:37;;;;;;;11.90;4.00;;;-2.30;97.30;;;;;;4971253;28;20190;-72
2024/01/11 15:19:03;;;;;;;2.30;1.93;;;-2.40;97.30;;;;;;4975309;28;20429;-71
2024/01/11 15:21:30;;;;;;;2.67;2.47;;;-2.40;97.30;;;;;;4969738;28;20202;-73
2024/01/11 15:23:56;;;;;;;2.07;1.93;;;-2.40;97.30;;;;;;4968905;28;20799;-72
2024/01/11 15:26:22;;;;;;;2.40;2.20;;;-2.50;97.30;;;;;;4970125;28;20413;-72
2024/01/11 15:28:53;;;;;;;2.37;2.20;;;-2.50;97.30;;;;;;4970009;28;20547;-72
2024/01/11 15:31:19;;;;;;;2.30;2.10;;;-2.50;97.30;;;;;;4977457;28;20225;-73
2024/01/11 15:33:45;;;;;;;1.50;1.40;;;-2.50;97.30;;;;;;4978736;28;20903;-73
2024/01/11 15:36:11;;;;;;;3.67;3.47;;;-2.50;97.30;;;;;;4973844;28;20229;-73
2024/01/11 15:38:37;;;;;;;2.60;2.40;;;-2.50;97.30;;;;;;4984378;28;20438;-74
2024/01/11 15:41:04;;;;;;;1.93;1.80;;;-2.50;97.30;;;;;;4975849;28;20464;-74
2024/01/11 15:43:33;;;;;;;2.93;2.80;;;-2.50;97.30;;;;;;4977160;28;20452;-75
2024/01/11 15:45:58;;;;;;;3.20;2.10;;;-2.50;97.30;;;;;;4968594;28;20426;-74
2024/01/11 15:48:24;;;;;;;1.50;1.40;;;-2.50;97.30;;;;;;4969795;28;20458;-75
2024/01/11 15:50:51;;;;;;;7.23;2.50;;;-2.50;97.30;;;;;;4975597;28;20237;-75
2024/01/11 15:53:17;;;;;;;1.37;1.27;;;-2.50;97.30;;;;;;4969688;28;20174;-75
2024/01/11 15:55:44;;;;;;;1.97;1.50;;;-2.50;97.30;;;;;;4967358;28;20981;-74
2024/01/11 15:58:09;;;;;;;2.67;2.50;;;-2.50;97.30;;;;;;4969650;28;20182;-76
2024/01/11 16:00:35;;;;;;;1.20;1.10;;;-2.50;97.30;;;;;;4969522;28;20434;-74
2024/01/11 16:03:01;;;;;;;2.73;2.40;;;-2.60;97.30;;;;;;4973082;28;20720;-74
2024/01/11 16:05:26;;;;;;;1.63;1.53;;;-2.60;97.30;;;;;;4971104;28;20422;-74
2024/01/11 16:07:52;;;;;;;1.67;1.57;;;-2.60;97.30;;;;;;4968464;28;20214;-74
2024/01/11 16:10:17;;;;;;;2.53;2.33;;;-2.60;97.30;;;;;;4968722;28;20201;-75
2024/01/11 16:12:43;;;;;;;3.10;2.90;;;-2.60;97.30;;;;;;4976509;28;20181;-75
2024/01/11 16:15:10;;;;;;;2.70;2.50;;;-2.60;97.30;;;;;;4968215;28;20564;-75
2024/01/11 16:17:36;;;;;;;1.70;1.60;;;-2.60;97.30;;;;;;4968887;28;20491;-75
2024/01/11 16:20:03;;;;;;;1.67;1.57;;;-2.60;97.30;;;;;;4967513;28;20434;-75
2024/01/11 16:22:29;;;;;;;4.53;3.17;;;-2.60;97.30;;;;;;4967344;28;20202;-76
2024/01/11 16:24:54;;;;;;;1.20;1.10;;;-2.60;97.30;;;;;;4969246;28;20422;-75
2024/01/11 16:27:20;;;;;;;1.60;1.50;;;-2.60;97.30;;;;;;4969767;28;20197;-75
2024/01/11 16:29:45;;;;;;;2.53;2.17;;;-2.60;97.30;;;;;;4965511;28;20221;-75
2024/01/11 16:32:12;;;;;;;1.23;1.13;;;-2.70;97.30;;;;;;4966561;28;20680;-75
2024/01/11 16:34:38;;;;;;;2.30;2.03;;;-2.70;97.30;;;;;;4965170;28;20186;-75
2024/01/11 16:37:05;;;;;;;10.60;5.23;;;-2.60;97.30;;;;;;4967036;28;20449;-75
2024/01/11 16:39:31;;;;;;;1.37;1.30;;;-2.60;97.30;;;;;;4975150;28;20444;-74
2024/01/11 16:41:56;;;;;;;1.73;1.50;;;-2.60;97.30;;;;;;4968271;28;20533;-75
2024/01/11 16:44:22;;;;;;;2.07;1.93;;;-2.60;97.30;;;;;;4967153;28;20190;-75
2024/01/11 16:46:47;;;;;;;4.30;1.77;;;-2.60;97.30;;;;;;4968309;28;20191;-75
2024/01/11 16:49:14;;;;;;;1.20;1.10;;;-2.60;97.30;;;;;;4967056;28;20617;-75
2024/01/11 16:51:43;;;;;;;2.60;2.33;;;-2.70;97.30;;;;;;4965920;28;20282;-75
2024/01/11 16:54:09;;;;;;;1.97;1.87;;;-2.70;97.30;;;;;;4972380;28;20421;-75
2024/01/11 16:56:34;;;;;;;2.60;2.30;;;-2.70;97.30;;;;;;4970835;28;20437;-75
2024/01/11 16:59:00;;;;;;;3.53;2.67;;;-2.70;97.30;;;;;;4970743;28;20209;-75
2024/01/11 17:01:25;;;;;;;1.30;1.20;;;-2.70;97.30;;;;;;4971038;28;20293;-75
2024/01/11 17:03:52;;;;;;;2.77;2.57;;;-2.70;97.30;;;;;;4970346;28;20204;-76
2024/01/11 17:06:18;;;;;;;1.57;1.47;;;-2.60;97.30;;;;;;4970984;28;20425;-76
2024/01/11 17:08:45;;;;;;;1.47;1.37;;;-2.60;97.30;;;;;;4970305;28;20682;-76
2024/01/11 17:11:11;;;;;;;6.00;1.60;;;-2.60;97.30;;;;;;4970421;28;20434;-75
2024/01/11 17:13:36;;;;;;;1.83;1.73;;;-2.60;97.30;;;;;;4977256;28;20996;-76
2024/01/11 17:16:03;;;;;;;1.90;1.80;;;-2.60;97.30;;;;;;4971586;28;20544;-75
2024/01/11 17:18:29;;;;;;;14.03;4.60;;;-2.50;97.30;;;;;;4972780;28;20245;-75
2024/01/11 17:20:54;;;;;;;3.03;2.83;;;-2.50;97.30;;;;;;4971166;28;20874;-75
2024/01/11 17:23:20;;;;;;;1.10;1.00;;;-2.50;97.30;;;;;;4979185;28;20678;-75
2024/01/11 17:25:46;;;;;;;2.80;2.60;;;-2.50;97.30;;;;;;4979989;28;20417;-75
2024/01/11 17:28:11;;;;;;;9.20;2.43;;;-2.40;97.30;;;;;;4982133;28;20248;-75
2024/01/11 17:30:37;;;;;;;2.03;1.90;;;-2.40;97.30;;;;;;4978582;28;20378;-75
2024/01/11 17:33:03;;;;;;;1.43;1.33;;;-2.50;97.30;;;;;;4964469;28;20228;-75
2024/01/11 17:35:28;;;;;;;1.20;1.10;;;-2.50;97.30;;;;;;4970006;28;20858;-75
2024/01/11 17:37:54;;;;;;;2.33;2.13;;;-2.50;97.30;;;;;;4970331;28;20271;-75
2024/01/11 17:40:20;;;;;;;3.40;3.20;;;-2.50;97.30;;;;;;4972424;28;20178;-74